createdAt,value
2023-02-24T00:02:15.255Z,4.69
2023-02-24T00:04:44.143Z,4.71
2023-02-24T00:07:13.960Z,4.72
2023-02-24T00:09:44.631Z,4.77
2023-02-24T00:12:15.828Z,4.71
2023-02-24T00:14:46.124Z,4.71
2023-02-24T00:17:15.577Z,4.73
2023-02-24T00:19:44.276Z,4.68
2023-02-24T00:22:12.859Z,4.65
2023-02-24T00:24:41.047Z,4.71
2023-02-24T00:27:11.793Z,4.71
2023-02-24T00:29:42.669Z,4.73
2023-02-24T00:32:13.295Z,4.64
2023-02-24T00:34:43.169Z,4.75
2023-02-24T00:37:12.230Z,4.71
2023-02-24T00:39:41.822Z,4.67
2023-02-24T00:42:11.626Z,4.67
2023-02-24T00:44:42.933Z,4.69
2023-02-24T00:47:12.842Z,4.70
2023-02-24T00:49:43.210Z,4.71
2023-02-24T00:52:13.881Z,4.67
2023-02-24T00:54:42.507Z,4.62
2023-02-24T00:57:11.687Z,4.60
2023-02-24T00:59:42.556Z,4.64
2023-02-24T01:02:11.560Z,4.64
2023-02-24T01:04:40.090Z,4.55
2023-02-24T01:07:11.226Z,4.54
2023-02-24T01:09:41.088Z,4.55
2023-02-24T01:12:39.201Z,4.51
2023-02-24T01:15:11.194Z,4.45
2023-02-24T01:17:39.361Z,4.40
2023-02-24T01:20:16.027Z,4.46
2023-02-24T01:22:44.785Z,4.44
2023-02-24T01:25:13.530Z,4.33
2023-02-24T01:27:41.993Z,4.25
2023-02-24T01:30:16.424Z,4.25
2023-02-24T01:32:46.643Z,4.23
2023-02-24T01:35:15.753Z,4.11
2023-02-24T01:37:45.475Z,4.07
2023-02-24T01:40:21.226Z,4.03
2023-02-24T01:42:49.695Z,4.00
2023-02-24T01:45:29.736Z,3.95
2023-02-24T01:48:02.253Z,3.93
2023-02-24T01:50:30.780Z,3.92
2023-02-24T01:53:01.371Z,3.86
2023-02-24T01:55:34.093Z,3.86
2023-02-24T01:58:06.016Z,3.83
2023-02-24T02:00:45.151Z,3.84
2023-02-24T02:03:20.449Z,3.84
2023-02-24T02:05:49.323Z,3.78
2023-02-24T02:08:19.542Z,3.77
2023-02-24T02:10:49.372Z,3.75
2023-02-24T02:13:21.523Z,3.73
2023-02-24T02:16:03.084Z,3.71
2023-02-24T02:18:44.185Z,3.70
2023-02-24T02:21:38.259Z,3.66
2023-02-24T02:24:33.324Z,3.70
2023-02-24T02:27:29.502Z,3.67
2023-02-24T02:30:31.378Z,3.65
2023-02-24T02:33:39.517Z,3.59
2023-02-24T02:36:18.713Z,3.57
2023-02-24T02:38:57.618Z,3.54
2023-02-24T02:41:30.454Z,3.52
2023-02-24T02:44:08.696Z,3.42
2023-02-24T02:46:42.853Z,3.35
2023-02-24T02:49:19.125Z,3.33
2023-02-24T02:51:52.962Z,3.28
2023-02-24T02:54:28.392Z,3.26
2023-02-24T02:57:03.281Z,3.25
2023-02-24T02:59:36.295Z,3.22
2023-02-24T03:02:15.090Z,3.19
2023-02-24T03:04:47.492Z,3.12
2023-02-24T03:07:19.878Z,3.07
2023-02-24T03:09:52.932Z,3.03
2023-02-24T03:12:26.088Z,3.09
2023-02-24T03:14:59.685Z,3.00
2023-02-24T03:17:32.188Z,2.97
2023-02-24T03:20:16.410Z,2.90
2023-02-24T03:22:50.056Z,2.87
2023-02-24T03:25:19.954Z,2.83
2023-02-24T03:27:53.027Z,2.94
2023-02-24T03:30:26.886Z,2.95
2023-02-24T03:33:01.456Z,2.94
2023-02-24T03:35:34.399Z,2.93
2023-02-24T03:38:06.545Z,2.86
2023-02-24T03:40:36.245Z,2.82
2023-02-24T03:43:07.682Z,2.88
2023-02-24T03:45:40.793Z,2.82
2023-02-24T03:48:12.024Z,2.83
2023-02-24T03:50:41.068Z,2.83
2023-02-24T03:53:30.805Z,2.85
2023-02-24T03:56:06.136Z,2.87
2023-02-24T03:58:50.815Z,2.84
2023-02-24T04:01:27.054Z,2.85
2023-02-24T04:04:01.887Z,2.79
2023-02-24T04:06:37.175Z,2.81
2023-02-24T04:09:13.882Z,2.81
2023-02-24T04:11:48.650Z,2.82
2023-02-24T04:14:25.344Z,2.79
2023-02-24T04:17:01.296Z,2.79
2023-02-24T04:19:33.952Z,2.75
2023-02-24T04:22:04.188Z,2.76
2023-02-24T04:24:35.441Z,2.76
2023-02-24T04:27:06.549Z,2.75
2023-02-24T04:29:39.204Z,2.73
2023-02-24T04:32:09.767Z,2.73
2023-02-24T04:34:37.953Z,2.75
2023-02-24T04:37:06.054Z,2.79
2023-02-24T04:39:38.552Z,2.71
2023-02-24T04:42:07.269Z,2.68
2023-02-24T04:44:36.185Z,2.70
2023-02-24T04:47:04.983Z,2.74
2023-02-24T04:49:34.159Z,2.74
2023-02-24T04:52:02.520Z,2.68
2023-02-24T04:54:30.626Z,2.65
2023-02-24T04:57:00.137Z,2.68
2023-02-24T04:59:29.167Z,2.63
2023-02-24T05:02:01.568Z,2.56
2023-02-24T05:04:31.986Z,2.66
2023-02-24T05:07:00.884Z,2.56
2023-02-24T05:09:30.282Z,2.55
2023-02-24T05:12:00.532Z,2.63
2023-02-24T05:14:28.783Z,2.72
2023-02-24T05:17:00.617Z,2.87
2023-02-24T05:19:46.318Z,3.01
2023-02-24T05:22:17.062Z,3.16
2023-02-24T05:24:48.045Z,3.22
2023-02-24T05:27:17.820Z,3.35
2023-02-24T05:29:46.235Z,3.51
2023-02-24T05:32:16.895Z,3.72
2023-02-24T05:34:45.071Z,3.89
2023-02-24T05:37:16.613Z,4.15
2023-02-24T05:39:44.920Z,4.40
2023-02-24T05:42:13.157Z,4.77
2023-02-24T05:44:42.703Z,5.25
2023-02-24T05:47:11.011Z,5.55
2023-02-24T05:49:39.340Z,5.76
2023-02-24T05:52:10.214Z,5.78
2023-02-24T05:54:40.648Z,5.96
2023-02-24T05:57:12.107Z,6.39
2023-02-24T05:59:41.273Z,6.55
2023-02-24T06:02:13.866Z,6.88
2023-02-24T06:04:51.137Z,6.49
2023-02-24T06:07:22.938Z,6.58
2023-02-24T06:09:54.097Z,6.80
2023-02-24T06:12:23.654Z,6.76
2023-02-24T06:14:53.156Z,7.07
2023-02-24T06:17:24.649Z,7.19
2023-02-24T06:19:55.244Z,7.20
2023-02-24T06:22:25.519Z,6.91
2023-02-24T06:24:54.907Z,6.71
2023-02-24T06:27:25.070Z,6.78
2023-02-24T06:29:55.389Z,6.90
2023-02-24T06:32:27.450Z,6.90
2023-02-24T06:34:57.272Z,7.06
2023-02-24T06:37:25.911Z,7.45
2023-02-24T06:39:54.197Z,7.56
2023-02-24T06:42:22.303Z,7.30
2023-02-24T06:44:50.543Z,6.99
2023-02-24T06:47:18.628Z,6.83
2023-02-24T06:49:48.866Z,6.79
2023-02-24T06:52:19.219Z,6.82
2023-02-24T06:54:49.813Z,7.03
2023-02-24T06:57:20.469Z,7.31
2023-02-24T06:59:49.100Z,7.20
2023-02-24T07:02:17.817Z,7.18
2023-02-24T07:04:47.760Z,7.43
2023-02-24T07:07:17.406Z,7.52
2023-02-24T07:09:45.891Z,7.96
2023-02-24T07:12:15.683Z,8.36
2023-02-24T07:14:44.114Z,8.42
2023-02-24T07:17:14.871Z,7.95
2023-02-24T07:19:44.198Z,8.02
2023-02-24T07:22:15.343Z,7.87
2023-02-24T07:24:46.422Z,7.39
2023-02-24T07:27:22.685Z,7.15
2023-02-24T07:29:53.649Z,7.04
2023-02-24T07:32:23.572Z,7.48
2023-02-24T07:34:51.791Z,7.95
2023-02-24T07:37:23.670Z,8.08
2023-02-24T07:39:51.864Z,8.03
2023-02-24T07:42:20.289Z,8.06
2023-02-24T07:44:49.447Z,7.65
2023-02-24T07:47:17.912Z,7.28
2023-02-24T07:49:46.104Z,7.81
2023-02-24T07:52:14.407Z,7.88
2023-02-24T07:54:44.316Z,7.95
2023-02-24T07:57:14.154Z,7.48
2023-02-24T07:59:47.261Z,7.39
2023-02-24T08:02:16.426Z,7.58
2023-02-24T08:04:50.199Z,7.36
2023-02-24T08:07:25.244Z,7.67
2023-02-24T08:10:24.601Z,7.84
2023-02-24T08:12:55.957Z,7.94
2023-02-24T08:15:25.727Z,7.99
2023-02-24T08:17:59.624Z,8.11
2023-02-24T08:20:30.143Z,8.25
2023-02-24T08:22:58.444Z,8.43
2023-02-24T08:25:36.581Z,8.58
2023-02-24T08:28:09.285Z,8.62
2023-02-24T08:30:40.035Z,8.14
2023-02-24T08:33:10.141Z,7.81
2023-02-24T08:35:44.864Z,7.81
2023-02-24T08:38:16.643Z,8.25
2023-02-24T08:40:51.579Z,8.16
2023-02-24T08:43:33.081Z,7.74
2023-02-24T08:46:04.953Z,7.68
2023-02-24T08:48:38.682Z,7.90
2023-02-24T08:51:10.985Z,8.26
2023-02-24T08:53:40.885Z,8.40
2023-02-24T08:56:12.678Z,8.31
2023-02-24T08:58:47.511Z,8.47
2023-02-24T09:01:24.731Z,8.72
2023-02-24T09:03:56.364Z,8.51
2023-02-24T09:06:35.218Z,8.54
2023-02-24T09:09:18.823Z,8.94
2023-02-24T09:11:56.165Z,9.03
2023-02-24T09:14:28.520Z,8.95
2023-02-24T09:17:07.032Z,8.79
2023-02-24T09:20:02.727Z,8.90
2023-02-24T09:22:33.113Z,9.01
2023-02-24T09:25:18.998Z,9.11
2023-02-24T09:27:52.612Z,9.41
2023-02-24T09:30:38.750Z,9.73
2023-02-24T09:33:17.976Z,9.62
2023-02-24T09:35:48.041Z,9.49
2023-02-24T09:38:17.354Z,9.56
2023-02-24T09:40:50.356Z,9.18
2023-02-24T09:43:24.696Z,8.58
2023-02-24T09:45:59.631Z,8.78
2023-02-24T09:48:43.963Z,9.13
2023-02-24T09:51:23.148Z,8.56
2023-02-24T09:53:54.655Z,8.50
2023-02-24T09:56:30.218Z,8.28
2023-02-24T09:59:12.775Z,8.84
2023-02-24T10:01:49.451Z,9.19
2023-02-24T10:04:49.235Z,9.32
2023-02-24T10:07:21.348Z,9.51
2023-02-24T10:09:54.049Z,9.12
2023-02-24T10:12:27.249Z,9.08
2023-02-24T10:15:15.241Z,8.40
2023-02-24T10:17:47.613Z,8.59
2023-02-24T10:20:31.248Z,8.56
2023-02-24T10:23:09.799Z,8.90
2023-02-24T10:25:54.326Z,8.64
2023-02-24T10:28:36.085Z,8.41
2023-02-24T10:31:20.431Z,8.32
2023-02-24T10:33:49.142Z,8.52
2023-02-24T10:36:26.983Z,8.64
2023-02-24T10:38:56.117Z,9.17
2023-02-24T10:41:28.857Z,9.45
2023-02-24T10:43:57.909Z,9.48
2023-02-24T10:46:42.885Z,9.52
2023-02-24T10:49:16.947Z,9.47
2023-02-24T10:51:53.668Z,9.05
2023-02-24T10:55:05.231Z,8.60
2023-02-24T10:57:58.206Z,8.29
2023-02-24T11:00:51.937Z,8.41
2023-02-24T11:03:36.180Z,8.64
2023-02-24T11:06:30.553Z,8.26
2023-02-24T11:09:19.342Z,8.48
2023-02-24T11:12:06.229Z,8.41
2023-02-24T11:15:08.122Z,8.63
2023-02-24T11:17:38.690Z,8.98
2023-02-24T11:20:22.871Z,8.95
2023-02-24T11:22:55.917Z,9.00
2023-02-24T11:25:27.339Z,8.99
2023-02-24T11:27:57.374Z,8.69
2023-02-24T11:30:42.656Z,8.27
2023-02-24T11:33:23.462Z,8.68
2023-02-24T11:36:05.284Z,8.53
2023-02-24T11:38:42.529Z,8.42
2023-02-24T11:41:20.737Z,8.62
2023-02-24T11:43:59.132Z,8.94
2023-02-24T11:46:36.358Z,9.10
2023-02-24T11:49:14.646Z,8.65
2023-02-24T11:51:46.160Z,9.03
2023-02-24T11:54:17.798Z,9.51
2023-02-24T11:56:48.255Z,9.60
2023-02-24T11:59:22.434Z,9.37
2023-02-24T12:01:58.123Z,9.31
2023-02-24T12:04:30.327Z,8.87
2023-02-24T12:07:06.920Z,8.90
2023-02-24T12:09:42.695Z,9.05
2023-02-24T12:12:16.586Z,9.25
2023-02-24T12:14:51.826Z,9.27
2023-02-24T12:17:27.124Z,9.58
2023-02-24T12:20:02.046Z,9.74
2023-02-24T12:22:43.604Z,9.92
2023-02-24T12:25:15.100Z,10.15
2023-02-24T12:27:57.832Z,9.82
2023-02-24T12:30:50.996Z,8.91
2023-02-24T12:33:32.800Z,8.87
2023-02-24T12:36:11.240Z,8.92
2023-02-24T12:38:56.857Z,9.08
2023-02-24T12:41:40.591Z,8.81
2023-02-24T12:44:20.430Z,8.91
2023-02-24T12:46:57.396Z,8.71
2023-02-24T12:49:53.954Z,8.62
2023-02-24T12:52:28.779Z,8.32
2023-02-24T12:55:09.623Z,8.56
2023-02-24T12:57:48.534Z,8.83
2023-02-24T13:00:23.967Z,8.72
2023-02-24T13:03:02.098Z,8.25
2023-02-24T13:05:35.676Z,8.24
2023-02-24T13:08:19.769Z,8.30
2023-02-24T13:10:59.807Z,8.14
2023-02-24T13:13:35.878Z,8.02
2023-02-24T13:16:04.176Z,7.73
2023-02-24T13:18:34.922Z,7.78
2023-02-24T13:21:08.904Z,7.71
2023-02-24T13:23:38.627Z,7.97
2023-02-24T13:26:08.377Z,8.36
2023-02-24T13:28:38.617Z,8.22
2023-02-24T13:31:09.326Z,8.33
2023-02-24T13:33:39.133Z,8.47
2023-02-24T13:36:16.356Z,8.38
2023-02-24T13:38:46.090Z,8.32
2023-02-24T13:41:40.827Z,8.36
2023-02-24T13:44:28.892Z,8.31
2023-02-24T13:47:18.311Z,8.29
2023-02-24T13:50:01.365Z,7.79
2023-02-24T13:52:45.368Z,7.66
2023-02-24T13:55:25.433Z,7.50
2023-02-24T13:58:19.774Z,7.67
2023-02-24T14:01:08.333Z,7.51
2023-02-24T14:03:39.817Z,7.46
2023-02-24T14:06:16.027Z,7.44
2023-02-24T14:08:47.120Z,7.63
2023-02-24T14:11:18.133Z,7.69
2023-02-24T14:13:50.874Z,7.74
2023-02-24T14:16:23.064Z,7.69
2023-02-24T14:18:56.862Z,7.72
2023-02-24T14:21:27.136Z,7.75
2023-02-24T14:24:00.047Z,7.49
2023-02-24T14:26:29.365Z,7.13
2023-02-24T14:29:01.733Z,6.92
2023-02-24T14:31:31.311Z,7.06
2023-02-24T14:34:02.534Z,7.00
2023-02-24T14:36:34.466Z,7.10
2023-02-24T14:39:10.477Z,7.03
2023-02-24T14:41:38.581Z,7.14
2023-02-24T14:44:18.919Z,7.04
2023-02-24T14:46:48.798Z,6.91
2023-02-24T14:49:21.430Z,6.97
2023-02-24T14:51:55.009Z,6.98
2023-02-24T14:54:34.933Z,6.84
2023-02-24T14:57:04.025Z,6.92
2023-02-24T14:59:36.934Z,6.90
2023-02-24T15:02:15.088Z,6.99
2023-02-24T15:04:44.773Z,6.91
2023-02-24T15:07:19.261Z,6.88
2023-02-24T15:09:49.264Z,6.71
2023-02-24T15:12:24.455Z,6.36
2023-02-24T15:14:58.526Z,6.35
2023-02-24T15:17:26.906Z,6.46
2023-02-24T15:19:57.655Z,6.38
2023-02-24T15:22:28.206Z,6.25
2023-02-24T15:25:09.170Z,6.21
2023-02-24T15:27:37.245Z,6.11
2023-02-24T15:30:09.847Z,6.17
2023-02-24T15:32:39.625Z,6.08
2023-02-24T15:35:08.853Z,6.07
2023-02-24T15:37:43.296Z,5.90
2023-02-24T15:40:20.992Z,5.96
2023-02-24T15:42:53.377Z,5.86
2023-02-24T15:45:31.503Z,5.87
2023-02-24T15:48:01.374Z,5.94
2023-02-24T15:50:30.890Z,5.85
2023-02-24T15:53:02.591Z,5.88
2023-02-24T15:55:32.681Z,5.74
2023-02-24T15:58:03.796Z,5.65
2023-02-24T16:00:33.320Z,5.74
2023-02-24T16:03:01.739Z,5.83
2023-02-24T16:05:29.851Z,5.72
2023-02-24T16:07:57.988Z,5.60
2023-02-24T16:10:30.269Z,5.65
2023-02-24T16:13:00.841Z,5.64
2023-02-24T16:15:31.598Z,5.61
2023-02-24T16:18:03.220Z,5.59
2023-02-24T16:20:33.659Z,5.61
2023-02-24T16:23:03.251Z,5.63
2023-02-24T16:25:35.881Z,5.63
2023-02-24T16:28:03.970Z,5.58
2023-02-24T16:30:32.341Z,5.56
2023-02-24T16:33:02.710Z,5.60
2023-02-24T16:35:31.057Z,5.65
2023-02-24T16:38:00.440Z,5.62
2023-02-24T16:40:32.049Z,5.63
2023-02-24T16:43:00.373Z,5.61
2023-02-24T16:45:30.519Z,5.62
2023-02-24T16:48:02.629Z,5.66
2023-02-24T16:50:34.381Z,5.57
2023-02-24T16:53:02.437Z,5.54
2023-02-24T16:55:30.501Z,5.40
2023-02-24T16:57:58.707Z,5.41
2023-02-24T17:00:27.049Z,5.65
2023-02-24T17:02:55.429Z,5.77
2023-02-24T17:05:27.519Z,5.79
2023-02-24T17:07:57.630Z,5.69
2023-02-24T17:10:26.954Z,5.74
2023-02-24T17:12:55.105Z,5.73
2023-02-24T17:15:25.222Z,5.72
2023-02-24T17:17:53.262Z,5.66
2023-02-24T17:20:22.295Z,5.76
2023-02-24T17:22:51.823Z,5.86
2023-02-24T17:25:22.998Z,5.91
2023-02-24T17:27:53.264Z,5.96
2023-02-24T17:30:24.880Z,6.00
2023-02-24T17:32:53.084Z,6.01
2023-02-24T17:35:21.342Z,6.01
2023-02-24T17:37:49.560Z,5.98
2023-02-24T17:40:19.595Z,5.94
2023-02-24T17:42:47.932Z,5.96
2023-02-24T17:45:16.640Z,5.99
2023-02-24T17:47:44.851Z,6.04
2023-02-24T17:50:14.297Z,6.08
2023-02-24T17:52:42.772Z,6.11
2023-02-24T17:55:11.416Z,6.20
2023-02-24T17:57:40.979Z,6.10
2023-02-24T18:00:10.784Z,6.09
2023-02-24T18:02:39.802Z,6.07
2023-02-24T18:05:08.678Z,6.09
2023-02-24T18:07:36.921Z,5.90
2023-02-24T18:10:06.630Z,6.05
2023-02-24T18:12:34.758Z,6.07
2023-02-24T18:15:09.194Z,6.09
2023-02-24T18:17:40.231Z,5.98
2023-02-24T18:20:12.164Z,6.05
2023-02-24T18:22:40.310Z,5.98
2023-02-24T18:25:09.061Z,5.90
2023-02-24T18:27:37.331Z,5.89
2023-02-24T18:30:10.158Z,5.83
2023-02-24T18:32:44.692Z,5.90
2023-02-24T18:35:13.436Z,6.01
2023-02-24T18:37:41.624Z,5.98
2023-02-24T18:40:12.231Z,5.99
2023-02-24T18:42:41.586Z,6.00
2023-02-24T18:45:11.797Z,6.00
2023-02-24T18:47:39.925Z,6.01
2023-02-24T18:50:09.580Z,6.05
2023-02-24T18:52:37.721Z,6.12
2023-02-24T18:55:06.654Z,6.07
2023-02-24T18:57:35.123Z,6.07
2023-02-24T19:00:04.851Z,6.09
2023-02-24T19:02:34.400Z,6.05
2023-02-24T19:05:02.555Z,5.99
2023-02-24T19:07:30.611Z,6.05
2023-02-24T19:09:58.683Z,6.07
2023-02-24T19:12:27.075Z,6.04
2023-02-24T19:14:55.194Z,5.96
2023-02-24T19:17:23.288Z,6.02
2023-02-24T19:19:54.113Z,6.06
2023-02-24T19:22:22.362Z,5.97
2023-02-24T19:24:50.528Z,6.05
2023-02-24T19:27:18.806Z,6.16
2023-02-24T19:29:46.923Z,6.19
2023-02-24T19:32:15.233Z,6.14
2023-02-24T19:34:43.949Z,6.16
2023-02-24T19:37:13.609Z,6.13
2023-02-24T19:39:41.736Z,6.12
2023-02-24T19:42:09.918Z,6.13
2023-02-24T19:44:38.158Z,6.04
2023-02-24T19:47:06.430Z,6.05
2023-02-24T19:49:34.548Z,6.02
2023-02-24T19:52:02.787Z,5.96
2023-02-24T19:54:32.252Z,5.90
2023-02-24T19:57:00.438Z,5.84
2023-02-24T19:59:28.619Z,5.84
2023-02-24T20:01:56.753Z,5.68
2023-02-24T20:04:25.551Z,5.71
2023-02-24T20:06:53.673Z,5.70
2023-02-24T20:09:22.649Z,5.60
2023-02-24T20:11:54.302Z,5.55
2023-02-24T20:14:22.585Z,5.53
2023-02-24T20:16:50.824Z,5.50
2023-02-24T20:19:19.059Z,5.42
2023-02-24T20:21:47.568Z,5.40
2023-02-24T20:24:17.852Z,5.34
2023-02-24T20:26:49.618Z,5.30
2023-02-24T20:29:22.201Z,5.17
2023-02-24T20:31:50.975Z,5.12
2023-02-24T20:34:19.198Z,5.14
2023-02-24T20:36:47.344Z,5.09
2023-02-24T20:39:15.388Z,5.03
2023-02-24T20:41:44.117Z,5.03
2023-02-24T20:44:12.910Z,4.93
2023-02-24T20:46:42.475Z,4.89
2023-02-24T20:49:12.858Z,4.89
2023-02-24T20:51:40.939Z,4.88
2023-02-24T20:54:13.621Z,4.90
2023-02-24T20:56:43.345Z,4.91
2023-02-24T20:59:14.213Z,4.90
2023-02-24T21:01:45.826Z,4.93
2023-02-24T21:04:16.974Z,4.85
2023-02-24T21:06:46.726Z,4.83
2023-02-24T21:09:15.256Z,4.82
2023-02-24T21:11:43.454Z,4.85
2023-02-24T21:14:15.894Z,4.88
2023-02-24T21:16:46.960Z,4.83
2023-02-24T21:19:15.042Z,4.87
2023-02-24T21:21:43.304Z,4.78
2023-02-24T21:24:11.431Z,4.72
2023-02-24T21:26:39.526Z,4.67
2023-02-24T21:29:07.944Z,4.67
2023-02-24T21:31:36.397Z,4.56
2023-02-24T21:34:06.047Z,4.59
2023-02-24T21:36:34.173Z,4.61
2023-02-24T21:39:02.384Z,4.59
2023-02-24T21:41:30.636Z,4.61
2023-02-24T21:44:00.649Z,4.65
2023-02-24T21:46:29.202Z,4.59
2023-02-24T21:48:59.101Z,4.66
2023-02-24T21:51:30.023Z,4.78
2023-02-24T21:53:58.488Z,4.81
2023-02-24T21:56:29.228Z,4.79
2023-02-24T21:59:00.176Z,4.96
2023-02-24T22:01:30.329Z,4.99
2023-02-24T22:04:01.389Z,4.98
2023-02-24T22:06:33.345Z,5.05
2023-02-24T22:09:02.736Z,5.07
2023-02-24T22:11:32.305Z,5.01
2023-02-24T22:14:00.433Z,4.96
2023-02-24T22:16:29.598Z,5.02
2023-02-24T22:18:57.924Z,5.11
2023-02-24T22:21:29.465Z,5.15
2023-02-24T22:24:01.100Z,5.10
2023-02-24T22:26:30.700Z,5.16
2023-02-24T22:28:59.293Z,5.18
2023-02-24T22:31:30.032Z,5.22
2023-02-24T22:33:58.642Z,5.15
2023-02-24T22:36:30.130Z,5.09
2023-02-24T22:39:00.743Z,5.07
2023-02-24T22:41:31.331Z,4.99
2023-02-24T22:43:59.989Z,4.95
2023-02-24T22:46:31.018Z,4.94
2023-02-24T22:48:59.835Z,4.89
2023-02-24T22:51:28.729Z,4.90
2023-02-24T22:53:57.667Z,4.93
2023-02-24T22:56:29.060Z,4.95
2023-02-24T22:58:58.281Z,4.89
2023-02-24T23:01:29.352Z,4.85
2023-02-24T23:03:59.630Z,4.89
2023-02-24T23:06:28.184Z,4.95
2023-02-24T23:08:57.950Z,4.98
2023-02-24T23:11:28.821Z,5.00
2023-02-24T23:13:58.999Z,4.93
2023-02-24T23:16:29.535Z,4.85
2023-02-24T23:18:59.326Z,4.80
2023-02-24T23:21:33.799Z,4.94
2023-02-24T23:24:01.966Z,4.91
2023-02-24T23:26:32.645Z,4.90
2023-02-24T23:29:00.844Z,4.87
2023-02-24T23:31:29.579Z,4.73
2023-02-24T23:33:58.194Z,4.61
2023-02-24T23:36:27.288Z,4.51
2023-02-24T23:38:55.384Z,4.44
2023-02-24T23:41:23.632Z,4.34
2023-02-24T23:43:53.435Z,4.33
2023-02-24T23:46:22.032Z,4.29
2023-02-24T23:48:52.826Z,4.24
2023-02-24T23:51:21.915Z,4.24
2023-02-24T23:53:50.165Z,4.52
2023-02-24T23:56:19.897Z,4.57
2023-02-24T23:58:53.100Z,4.49
